Time;durP1;ratioP1;P1;durP2;ratioP2;P2;SDS_P1;SDS_P2;PMS_P1;PMS_P2;Temp;Humidity;BMP_temperature;BMP_pressure;BME280_temperature;BME280_humidity;BME280_pressure;Samples;Min_cycle;Max_cycle;Signal;HPM_P1;HPM_P2
2023/01/16 00:01:24;;;;;;;2.60;1.20;;;;;;;3.94;98.33;99069.13;5001094;28;20181;-77
2023/01/16 00:03:50;;;;;;;4.03;1.20;;;;;;;3.97;98.02;99046.94;4997921;28;20213;-77
2023/01/16 00:06:15;;;;;;;2.67;1.13;;;;;;;3.93;97.57;99049.53;4995485;28;20193;-77
2023/01/16 00:08:42;;;;;;;2.93;1.07;;;;;;;3.86;98.01;99040.13;4997178;28;20188;-76
2023/01/16 00:11:08;;;;;;;4.20;1.23;;;;;;;3.77;98.61;99036.75;4997607;28;20212;-75
2023/01/16 00:13:34;;;;;;;2.50;1.23;;;;;;;3.66;99.13;99034.19;4998208;28;20236;-76
2023/01/16 00:15:59;;;;;;;3.60;1.00;;;;;;;3.61;99.60;99029.94;4997076;28;20189;-76
2023/01/16 00:18:24;;;;;;;3.13;1.30;;;;;;;3.59;99.85;99021.41;4998087;28;20261;-76
2023/01/16 00:20:49;;;;;;;3.03;1.40;;;;;;;3.50;99.98;99012.03;4998031;28;20576;-77
2023/01/16 00:23:15;;;;;;;2.00;0.93;;;;;;;3.45;100.00;99013.75;4994783;28;20213;-76
2023/01/16 00:25:42;;;;;;;3.13;1.27;;;;;;;3.43;100.00;99008.63;4996317;28;20185;-76
2023/01/16 00:28:08;;;;;;;2.77;0.97;;;;;;;3.35;100.00;99012.88;4995763;28;20243;-74
2023/01/16 00:30:33;;;;;;;2.57;0.90;;;;;;;3.31;100.00;99001.81;4990849;28;22531;-74
2023/01/16 00:32:59;;;;;;;4.13;1.20;;;;;;;3.34;100.00;98986.47;5005320;28;20188;-74
2023/01/16 00:35:26;;;;;;;1.60;0.70;;;;;;;3.30;100.00;98991.59;4999959;28;20655;-74
2023/01/16 00:37:51;;;;;;;1.50;0.80;;;;;;;3.29;100.00;98984.78;4997068;28;20197;-74
2023/01/16 00:40:17;;;;;;;3.23;1.13;;;;;;;3.25;100.00;98973.72;5000631;28;20194;-74
2023/01/16 00:42:42;;;;;;;3.57;1.23;;;;;;;3.22;100.00;98973.72;5001689;28;20188;-76
2023/01/16 00:45:08;;;;;;;2.07;0.90;;;;;;;3.18;100.00;98966.88;4998364;28;20803;-74
2023/01/16 00:47:33;;;;;;;2.97;0.90;;;;;;;3.12;100.00;98964.31;5005444;28;20193;-74
2023/01/16 00:49:58;;;;;;;2.07;1.17;;;;;;;3.08;100.00;98960.91;4992208;28;20217;-75
2023/01/16 00:52:24;;;;;;;3.47;1.30;;;;;;;3.08;100.00;98954.97;4998534;28;20580;-74
2023/01/16 00:54:49;;;;;;;3.40;1.00;;;;;;;3.10;100.00;98958.38;4999226;28;20237;-75
2023/01/16 00:57:14;;;;;;;3.00;1.00;;;;;;;3.11;100.00;98952.38;4996378;28;20567;-76
2023/01/16 00:59:40;;;;;;;2.73;1.03;;;;;;;3.12;100.00;98948.97;4996833;28;20263;-75
2023/01/16 01:02:05;;;;;;;1.23;0.87;;;;;;;3.12;100.00;98941.31;5002645;28;20657;-76
2023/01/16 01:04:30;;;;;;;1.43;0.90;;;;;;;3.10;100.00;98937.94;5001998;28;20312;-75
2023/01/16 01:06:55;;;;;;;2.67;0.70;;;;;;;3.09;100.00;98931.94;4994951;28;20279;-75
2023/01/16 01:09:21;;;;;;;2.60;1.00;;;;;;;3.13;100.00;98933.66;4994329;28;20291;-75
2023/01/16 01:11:46;;;;;;;3.93;1.27;;;;;;;3.13;100.00;98930.22;4996074;28;20614;-74
2023/01/16 01:14:11;;;;;;;3.03;0.93;;;;;;;3.15;100.00;98928.53;4997959;28;20209;-76
2023/01/16 01:16:37;;;;;;;2.30;1.10;;;;;;;3.14;100.00;98924.25;4994578;28;20192;-76
2023/01/16 01:19:02;;;;;;;2.60;0.70;;;;;;;3.18;100.00;98913.19;5009537;28;20176;-78
2023/01/16 01:21:27;;;;;;;2.17;0.80;;;;;;;3.20;100.00;98901.25;5026532;28;20245;-80
2023/01/16 01:23:55;;;;;;;3.27;1.07;;;;;;;3.23;100.00;98900.41;5012460;28;20253;-76
2023/01/16 01:26:21;;;;;;;2.70;0.93;;;;;;;3.32;100.00;98901.25;4998184;28;20191;-77
2023/01/16 01:28:46;;;;;;;1.93;0.90;;;;;;;3.41;100.00;98890.13;4996732;28;20188;-73
2023/01/16 01:31:12;;;;;;;1.43;0.70;;;;;;;3.46;100.00;98880.75;4996468;28;20763;-75
2023/01/16 01:33:38;;;;;;;3.10;1.00;;;;;;;3.50;100.00;98871.34;4998248;28;20225;-76
2023/01/16 01:36:04;;;;;;;3.00;0.83;;;;;;;3.53;100.00;98866.25;4996264;28;20618;-74
2023/01/16 01:38:30;;;;;;;3.50;1.27;;;;;;;3.50;100.00;98864.53;4997737;28;20197;-75
2023/01/16 01:40:55;;;;;;;1.73;0.80;;;;;;;3.49;100.00;98846.63;4998189;28;20223;-73
2023/01/16 01:43:20;;;;;;;2.20;1.00;;;;;;;3.49;100.00;98851.75;4999933;28;20208;-75
2023/01/16 01:45:53;;;;;;;3.27;0.90;;;;;;;3.48;100.00;98848.31;5001012;28;20322;-75
2023/01/16 01:48:26;;;;;;;2.43;0.77;;;;;;;3.43;100.00;98850.06;4992053;28;20227;-74
2023/01/16 01:50:58;;;;;;;3.23;1.20;;;;;;;3.41;100.00;98846.66;4988141;28;20241;-75
2023/01/16 01:53:35;;;;;;;2.43;1.10;;;;;;;3.37;100.00;98836.47;4995719;28;20209;-75
2023/01/16 01:56:32;;;;;;;2.93;0.70;;;;;;;3.35;100.00;98834.75;5001850;28;20286;-75
2023/01/16 01:59:02;;;;;;;2.60;0.90;;;;;;;3.41;100.00;98833.00;4993127;28;20193;-76
2023/01/16 02:01:29;;;;;;;1.17;0.70;;;;;;;3.44;100.00;98821.09;4995503;28;20186;-74
2023/01/16 02:04:01;;;;;;;1.23;0.73;;;;;;;3.50;100.00;98810.81;4995533;28;20213;-76
2023/01/16 02:06:34;;;;;;;2.53;0.90;;;;;;;3.59;100.00;98809.09;5003881;28;20793;-77
2023/01/16 02:09:00;;;;;;;1.70;0.90;;;;;;;3.65;100.00;98799.69;4997324;28;20200;-74
2023/01/16 02:11:35;;;;;;;1.67;0.60;;;;;;;3.75;100.00;98797.06;5000773;28;20686;-74
2023/01/16 02:14:05;;;;;;;3.73;1.30;;;;;;;3.81;100.00;98792.75;4995164;28;20233;-77
2023/01/16 02:19:25;;;;;;;3.77;1.10;;;;;;;3.95;99.37;98782.44;5003779;28;20225;-77
2023/01/16 02:22:11;;;;;;;2.10;1.00;;;;;;;4.02;99.18;98777.28;5000775;28;20184;-76
2023/01/16 02:25:13;;;;;;;2.47;1.20;;;;;;;4.11;98.82;98759.31;4998308;28;20591;-78
2023/01/16 02:28:16;;;;;;;2.93;0.83;;;;;;;4.22;98.44;98761.78;4997209;28;20189;-77
2023/01/16 02:31:09;;;;;;;2.33;1.00;;;;;;;4.33;98.11;98756.56;4999910;28;20208;-73
2023/01/16 02:33:59;;;;;;;2.10;1.07;;;;;;;4.41;97.65;98742.00;5004369;28;20693;-75
2023/01/16 02:36:44;;;;;;;5.20;1.03;;;;;;;4.48;97.36;98735.94;4998511;28;20208;-75
2023/01/16 02:39:13;;;;;;;2.93;1.10;;;;;;;4.54;97.26;98733.31;4999025;28;20199;-76
2023/01/16 02:41:50;;;;;;;1.70;1.00;;;;;;;4.63;96.89;98721.28;4996822;28;20193;-74
2023/01/16 02:44:30;;;;;;;1.83;0.80;;;;;;;4.68;96.53;98711.84;4996929;28;20243;-74
2023/01/16 02:47:08;;;;;;;2.83;1.10;;;;;;;4.71;96.19;98704.97;4997469;28;20186;-75
2023/01/16 02:50:00;;;;;;;2.37;1.10;;;;;;;4.75;96.11;98697.25;4993769;28;20585;-75
2023/01/16 02:52:39;;;;;;;2.63;0.70;;;;;;;4.77;96.08;98691.22;4994742;28;20185;-77
2023/01/16 02:55:16;;;;;;;1.97;0.93;;;;;;;4.81;95.78;98677.53;4997397;28;20212;-74
2023/01/16 02:57:47;;;;;;;2.73;1.10;;;;;;;4.82;95.56;98674.09;4998734;28;20591;-73
2023/01/16 03:00:16;;;;;;;1.60;0.77;;;;;;;4.84;95.39;98674.09;4998005;28;20229;-77
2023/01/16 03:02:43;;;;;;;2.37;0.90;;;;;;;4.86;95.46;98667.22;4995743;28;20194;-75
2023/01/16 03:05:08;;;;;;;2.03;0.80;;;;;;;4.86;95.50;98651.81;4995201;28;20209;-75
2023/01/16 03:08:04;;;;;;;2.97;1.10;;;;;;;4.90;95.26;98642.41;5000754;28;20651;-76
2023/01/16 03:10:48;;;;;;;2.80;1.00;;;;;;;4.90;95.13;98630.44;4998195;28;20289;-73
2023/01/16 03:13:16;;;;;;;1.57;0.80;;;;;;;4.91;95.14;98629.56;4997940;28;20744;-74
2023/01/16 03:16:00;;;;;;;2.43;0.90;;;;;;;4.94;95.29;98615.84;4997863;28;20195;-75
2023/01/16 03:18:34;;;;;;;1.80;0.80;;;;;;;4.96;95.13;98609.84;4992542;28;20710;-76
2023/01/16 03:21:10;;;;;;;2.60;1.10;;;;;;;4.99;94.94;98602.09;4992555;28;20205;-77
2023/01/16 03:23:41;;;;;;;3.90;1.20;;;;;;;5.01;94.43;98586.72;5004190;28;20217;-77
2023/01/16 03:26:16;;;;;;;3.23;1.10;;;;;;;5.02;93.95;98584.09;5006832;28;20193;-77
2023/01/16 03:28:59;;;;;;;1.77;1.00;;;;;;;5.03;94.07;98573.00;5003770;28;20662;-78
2023/01/16 03:31:46;;;;;;;2.50;1.23;;;;;;;5.04;94.15;98579.81;5032014;28;20204;-77
2023/01/16 03:34:17;;;;;;;1.60;0.80;;;;;;;5.03;94.33;98567.03;5024660;28;20602;-75
2023/01/16 03:36:54;;;;;;;3.67;0.80;;;;;;;5.01;94.29;98553.38;4994873;28;20193;-76
2023/01/16 03:39:24;;;;;;;1.83;0.80;;;;;;;4.96;94.61;98556.00;4998811;28;20276;-75
2023/01/16 03:41:53;;;;;;;2.23;1.10;;;;;;;4.96;94.68;98547.47;5001242;28;20216;-76
2023/01/16 03:44:29;;;;;;;3.33;0.80;;;;;;;4.97;94.79;98538.91;4995426;28;20584;-75
2023/01/16 03:46:56;;;;;;;3.23;0.97;;;;;;;4.98;94.74;98538.91;5001358;28;21054;-75
2023/01/16 03:49:27;;;;;;;1.97;1.27;;;;;;;5.02;94.50;98530.28;5000128;28;20577;-76
2023/01/16 03:51:58;;;;;;;2.30;1.10;;;;;;;5.06;94.37;98523.41;5004357;28;20250;-76
2023/01/16 03:54:29;;;;;;;4.40;1.00;;;;;;;5.10;93.97;98513.94;5004669;28;20204;-76
2023/01/16 03:57:06;;;;;;;2.93;0.93;;;;;;;5.11;93.73;98506.22;4998162;28;20234;-76
2023/01/16 03:59:31;;;;;;;1.97;1.00;;;;;;;5.10;93.79;98491.69;5000967;28;20690;-75
2023/01/16 04:02:01;;;;;;;1.43;0.90;;;;;;;5.09;93.73;98481.47;5002440;28;20199;-76
2023/01/16 04:04:48;;;;;;;1.80;1.00;;;;;;;5.03;93.83;98472.16;4992767;28;20239;-75
2023/01/16 04:07:33;;;;;;;1.70;0.73;;;;;;;4.94;94.14;98460.34;5003109;28;20194;-75
2023/01/16 04:10:03;;;;;;;1.73;0.70;;;;;;;4.85;94.36;98458.75;4993654;28;20992;-76
2023/01/16 04:12:34;;;;;;;1.90;1.03;;;;;;;4.82;94.48;98445.16;5005263;28;20188;-77
2023/01/16 04:15:04;;;;;;;2.80;0.97;;;;;;;4.75;94.44;98433.28;4998690;28;20290;-76
2023/01/16 04:17:29;;;;;;;2.00;0.90;;;;;;;4.71;94.91;98425.63;5002941;28;20186;-76
2023/01/16 04:19:55;;;;;;;1.00;0.70;;;;;;;4.74;95.02;98417.06;4995260;28;20293;-76
2023/01/16 04:22:25;;;;;;;1.63;0.70;;;;;;;4.81;95.00;98405.84;4997768;28;20204;-75
2023/01/16 04:24:52;;;;;;;3.20;1.00;;;;;;;4.86;94.73;98398.06;5003688;28;20218;-78
2023/01/16 04:27:18;;;;;;;1.63;0.80;;;;;;;4.92;94.51;98404.81;4998428;28;20253;-76
2023/01/16 04:29:44;;;;;;;1.47;0.83;;;;;;;4.94;94.34;98393.69;4996148;28;20660;-76
2023/01/16 04:32:09;;;;;;;1.37;0.70;;;;;;;4.99;94.43;98385.91;4992213;28;20192;-76
2023/01/16 04:34:34;;;;;;;2.50;0.80;;;;;;;5.02;94.28;98383.31;4996747;28;20731;-77
2023/01/16 04:37:00;;;;;;;1.90;0.73;;;;;;;5.04;94.15;98368.75;4994623;28;21188;-76
2023/01/16 04:39:25;;;;;;;1.17;0.80;;;;;;;5.07;94.13;98365.28;4999674;28;20798;-76
2023/01/16 04:41:50;;;;;;;1.03;0.57;;;;;;;5.08;94.06;98357.53;5002040;28;20471;-76
2023/01/16 04:44:16;;;;;;;1.63;0.70;;;;;;;5.10;94.13;98355.78;4998758;28;20213;-75
2023/01/16 04:46:42;;;;;;;1.43;0.80;;;;;;;5.12;94.17;98346.38;4997403;28;20239;-76
2023/01/16 04:49:07;;;;;;;1.27;0.60;;;;;;;5.16;94.18;98331.75;4995440;28;20555;-73
2023/01/16 04:51:34;;;;;;;1.53;0.80;;;;;;;5.18;94.53;98325.75;4993358;28;20203;-77
2023/01/16 04:53:59;;;;;;;1.70;0.63;;;;;;;5.19;94.46;98314.63;4996891;28;20310;-77
2023/01/16 04:56:25;;;;;;;2.97;1.10;;;;;;;5.21;94.76;98303.50;4997070;28;20768;-76
2023/01/16 04:58:50;;;;;;;1.03;0.40;;;;;;;5.22;94.53;98300.88;5009461;28;20195;-75
2023/01/16 05:01:17;;;;;;;1.10;0.60;;;;;;;5.23;94.54;98294.88;4990409;28;20187;-75
2023/01/16 05:03:42;;;;;;;1.30;0.80;;;;;;;5.24;94.70;98280.31;4996667;28;20249;-75
2023/01/16 05:06:08;;;;;;;1.30;0.60;;;;;;;5.21;94.73;98282.97;4992574;28;20880;-76
2023/01/16 05:08:33;;;;;;;1.80;0.83;;;;;;;5.13;94.90;98267.75;5008666;28;20651;-76
2023/01/16 05:11:00;;;;;;;1.23;0.73;;;;;;;5.02;95.07;98260.25;4997018;28;20220;-76
2023/01/16 05:13:27;;;;;;;1.00;0.70;;;;;;;4.90;95.41;98255.34;5000630;28;20205;-75
2023/01/16 05:15:52;;;;;;;1.60;0.70;;;;;;;4.76;95.69;98248.78;4989590;28;20278;-76
2023/01/16 05:18:17;;;;;;;1.20;0.70;;;;;;;4.63;95.93;98234.47;4992103;28;20279;-75
2023/01/16 05:20:43;;;;;;;2.83;0.87;;;;;;;4.49;96.31;98237.28;4993257;28;20222;-76
2023/01/16 05:23:10;;;;;;;1.70;0.70;;;;;;;4.38;96.87;98219.53;4993565;28;20199;-78
2023/01/16 05:25:35;;;;;;;0.77;0.50;;;;;;;4.26;97.13;98213.75;5001182;28;20631;-75
2023/01/16 05:28:01;;;;;;;1.20;0.60;;;;;;;4.14;97.41;98198.59;4994580;28;20312;-75
2023/01/16 05:30:26;;;;;;;1.20;0.70;;;;;;;4.04;97.62;98187.66;4994717;28;20833;-75
2023/01/16 05:32:51;;;;;;;0.60;0.50;;;;;;;3.95;98.13;98180.13;4995368;28;20272;-77
2023/01/16 05:35:17;;;;;;;1.70;0.80;;;;;;;3.86;98.38;98167.47;4995425;28;20280;-75
2023/01/16 05:37:43;;;;;;;1.87;0.47;;;;;;;3.77;98.70;98161.66;4999084;28;20193;-75
2023/01/16 05:40:10;;;;;;;1.77;0.70;;;;;;;3.72;98.97;98154.91;5021284;28;20178;-77
2023/01/16 05:42:36;;;;;;;1.00;0.60;;;;;;;3.66;99.24;98145.59;5024514;28;20195;-75
2023/01/16 05:45:01;;;;;;;1.27;0.70;;;;;;;3.62;99.23;98146.53;5000749;28;20288;-76
2023/01/16 05:47:26;;;;;;;2.10;0.83;;;;;;;3.60;99.66;98132.94;5001906;28;20278;-76
2023/01/16 05:49:52;;;;;;;1.10;0.60;;;;;;;3.59;99.80;98114.16;4995463;28;20224;-76
2023/01/16 05:52:17;;;;;;;1.00;0.70;;;;;;;3.57;99.85;98105.66;4993098;28;20193;-75
2023/01/16 05:54:42;;;;;;;1.63;0.50;;;;;;;3.54;100.00;98103.19;4992712;28;20208;-76
2023/01/16 05:57:08;;;;;;;1.33;0.70;;;;;;;3.50;100.00;98102.38;4994536;28;20200;-74
2023/01/16 05:59:33;;;;;;;1.30;0.80;;;;;;;3.47;100.00;98089.66;4997032;28;20315;-76
2023/01/16 06:01:59;;;;;;;0.93;0.60;;;;;;;3.44;100.00;98087.13;5007325;28;20235;-76
2023/01/16 06:04:24;;;;;;;1.57;0.80;;;;;;;3.42;100.00;98076.06;5000823;28;20841;-75
2023/01/16 06:06:49;;;;;;;4.37;1.10;;;;;;;3.39;100.00;98065.06;4996242;28;20183;-75
2023/01/16 06:09:15;;;;;;;2.90;1.10;;;;;;;3.37;100.00;98057.41;4998826;28;20187;-76
2023/01/16 06:11:40;;;;;;;5.13;1.30;;;;;;;3.35;100.00;98047.22;4996552;28;20211;-75
2023/01/16 06:14:05;;;;;;;2.77;1.63;;;;;;;3.34;100.00;98039.53;5006210;28;20257;-76
2023/01/16 06:16:31;;;;;;;2.07;1.30;;;;;;;3.32;100.00;98036.19;5004969;28;20184;-75
2023/01/16 06:18:57;;;;;;;2.33;1.20;;;;;;;3.29;99.90;98028.56;5009639;28;20232;-75
2023/01/16 06:21:22;;;;;;;1.33;0.97;;;;;;;3.26;99.83;98021.78;4996975;28;20626;-76
2023/01/16 06:23:48;;;;;;;2.50;1.23;;;;;;;3.23;99.77;98014.19;4999918;28;20237;-77
2023/01/16 06:26:13;;;;;;;2.50;1.20;;;;;;;3.17;99.92;98017.69;5005383;28;20664;-80
2023/01/16 06:28:38;;;;;;;1.60;1.10;;;;;;;3.10;100.00;98005.84;5002041;28;20189;-75
2023/01/16 06:31:05;;;;;;;1.87;1.10;;;;;;;3.03;100.00;98005.09;5002081;28;20243;-76
2023/01/16 06:33:31;;;;;;;3.30;1.20;;;;;;;2.96;100.00;97995.81;4995068;28;20806;-75
2023/01/16 06:35:56;;;;;;;2.30;1.10;;;;;;;2.90;100.00;97988.28;5002326;28;20193;-74
2023/01/16 06:38:22;;;;;;;5.00;1.17;;;;;;;2.86;100.00;97978.94;4997728;28;20203;-73
2023/01/16 06:40:48;;;;;;;1.63;0.80;;;;;;;2.84;100.00;97973.88;4996515;28;20740;-75
2023/01/16 06:43:15;;;;;;;2.80;0.90;;;;;;;2.81;100.00;97976.47;4995063;28;20200;-72
2023/01/16 06:45:40;;;;;;;3.80;1.30;;;;;;;2.79;100.00;97962.88;4998336;28;20334;-75
2023/01/16 06:48:05;;;;;;;1.87;1.20;;;;;;;2.78;100.00;97958.63;4997590;28;20706;-76
2023/01/16 06:50:31;;;;;;;2.13;1.27;;;;;;;2.78;100.00;97945.03;4992906;28;20682;-74
2023/01/16 06:52:56;;;;;;;1.60;1.17;;;;;;;2.77;100.00;97949.28;4998182;28;20237;-76
2023/01/16 06:55:21;;;;;;;2.67;1.27;;;;;;;2.80;100.00;97939.03;5005214;28;20197;-75
2023/01/16 06:57:48;;;;;;;2.30;1.30;;;;;;;2.83;100.00;97922.78;5006854;28;20193;-73
2023/01/16 07:00:14;;;;;;;2.70;1.10;;;;;;;2.87;100.00;97920.16;5003386;28;20239;-75
2023/01/16 07:02:40;;;;;;;1.90;0.93;;;;;;;2.93;100.00;97913.28;5012458;28;20186;-78
2023/01/16 07:05:09;;;;;;;1.83;1.10;;;;;;;2.98;100.00;97899.56;5021181;28;20254;-78
2023/01/16 07:07:35;;;;;;;2.77;1.10;;;;;;;3.04;100.00;97896.91;5012148;28;20176;-77
2023/01/16 07:10:01;;;;;;;2.93;1.77;;;;;;;3.10;100.00;97895.94;5004282;28;20204;-77
2023/01/16 07:12:26;;;;;;;6.80;5.80;;;;;;;3.15;100.00;97894.16;5005333;28;20246;-77
2023/01/16 07:23:25;;;;;;;6.47;5.53;;;;;;;3.25;100.00;97869.28;5010662;28;20239;-75
2023/01/16 07:25:51;;;;;;;5.57;4.90;;;;;;;3.26;100.00;97865.00;5010709;28;20276;-76
2023/01/16 07:28:16;;;;;;;3.93;3.30;;;;;;;3.33;100.00;97851.22;5008231;28;20204;-74
2023/01/16 07:30:43;;;;;;;2.20;1.70;;;;;;;3.40;100.00;97844.31;5008486;28;20343;-74
2023/01/16 07:33:09;;;;;;;2.23;1.20;;;;;;;3.47;100.00;97831.38;5008023;28;20198;-75
2023/01/16 07:35:35;;;;;;;2.07;0.90;;;;;;;3.55;100.00;97831.22;5006188;28;20180;-74
2023/01/16 07:38:00;;;;;;;1.30;0.70;;;;;;;3.63;100.00;97825.94;5004955;28;20279;-76
2023/01/16 07:40:25;;;;;;;1.23;0.60;;;;;;;3.68;99.73;97824.13;5011240;28;20185;-75
2023/01/16 07:42:51;;;;;;;1.57;0.60;;;;;;;3.75;99.19;97818.03;5007957;28;20745;-77
2023/01/16 07:45:17;;;;;;;1.63;0.60;;;;;;;3.82;98.94;97816.16;5001964;28;20609;-76
2023/01/16 07:47:42;;;;;;;1.03;0.40;;;;;;;3.91;98.48;97812.56;5000333;28;20192;-74
2023/01/16 07:50:08;;;;;;;0.87;0.60;;;;;;;4.00;97.66;97803.84;5040755;28;20196;-76
2023/01/16 07:52:33;;;;;;;0.97;0.50;;;;;;;4.08;97.13;97789.97;5038648;28;20182;-73
2023/01/16 07:54:59;;;;;;;0.73;0.40;;;;;;;4.17;96.67;97788.94;5009651;28;20209;-75
2023/01/16 07:57:27;;;;;;;1.87;0.40;;;;;;;4.26;96.19;97773.38;5011417;28;20194;-76
2023/01/16 07:59:53;;;;;;;0.83;0.50;;;;;;;4.37;95.84;97783.34;5012098;28;20550;-76
2023/01/16 08:02:18;;;;;;;0.80;0.50;;;;;;;4.48;94.97;97782.25;5010459;28;20187;-76
2023/01/16 08:04:43;;;;;;;0.77;0.60;;;;;;;4.57;94.43;97767.50;5008607;28;20201;-73
2023/01/16 08:07:09;;;;;;;0.73;0.60;;;;;;;4.70;93.91;97759.50;5010525;28;20177;-75
2023/01/16 08:09:34;;;;;;;1.23;0.70;;;;;;;4.80;93.33;97754.97;5005303;28;20208;-75
2023/01/16 08:11:59;;;;;;;0.60;0.60;;;;;;;4.91;92.89;97752.13;5005859;28;20645;-75
2023/01/16 08:14:25;;;;;;;0.90;0.60;;;;;;;4.98;92.41;97738.25;5010612;28;20289;-75
2023/01/16 08:16:50;;;;;;;0.60;0.50;;;;;;;5.05;91.80;97737.22;5013739;28;20190;-75
2023/01/16 08:19:15;;;;;;;0.87;0.53;;;;;;;5.14;90.92;97741.25;5008773;28;20613;-76
2023/01/16 08:21:41;;;;;;;1.37;0.60;;;;;;;5.19;90.19;97732.53;4996967;28;20746;-76
2023/01/16 08:24:06;;;;;;;1.63;0.63;;;;;;;5.24;89.70;97723.84;4999073;28;20303;-78
2023/01/16 08:26:32;;;;;;;0.60;0.50;;;;;;;5.31;89.09;97733.06;5013257;28;20177;-77
2023/01/16 08:28:58;;;;;;;1.10;0.70;;;;;;;5.37;88.91;97719.22;5008056;28;20646;-76
2023/01/16 08:31:23;;;;;;;1.10;0.80;;;;;;;5.41;88.05;97708.81;5022728;28;20202;-74
2023/01/16 08:33:49;;;;;;;1.60;0.73;;;;;;;5.49;87.37;97716.28;5008179;28;20578;-75
2023/01/16 08:36:16;;;;;;;0.90;0.60;;;;;;;5.54;86.57;97764.88;5003295;28;20689;-74
2023/01/16 08:38:42;;;;;;;1.47;0.70;;;;;;;5.67;85.59;97707.22;4996254;28;20187;-75
2023/01/16 08:51:21;;;;;;;1.00;0.70;;;;;;;5.74;86.88;97721.53;5010110;28;20352;-75
2023/01/16 08:52:10;;;;;;;0.43;0.40;;;;;;;6.15;83.88;97674.06;5009867;28;20228;-76
2023/01/16 08:54:35;;;;;;;1.00;0.40;;;;;;;6.28;82.50;97647.06;5010424;28;20244;-76
2023/01/16 08:57:01;;;;;;;0.57;0.40;;;;;;;6.40;82.29;97654.38;5005965;28;20735;-75
2023/01/16 08:59:32;;;;;;;0.63;0.30;;;;;;;6.50;82.24;97652.34;4999437;28;20675;-75
2023/01/16 09:01:59;;;;;;;0.50;0.40;;;;;;;6.65;79.45;97638.09;5002030;28;20191;-75
2023/01/16 09:04:24;;;;;;;0.77;0.30;;;;;;;6.76;77.93;97634.28;5010050;28;20200;-74
2023/01/16 09:06:49;;;;;;;0.70;0.50;;;;;;;6.83;78.09;97622.91;5013798;28;20690;-74
2023/01/16 09:09:15;;;;;;;0.53;0.43;;;;;;;6.89;77.77;97625.22;5006610;28;20290;-75
2023/01/16 09:14:24;;;;;;;0.73;0.50;;;;;;;6.94;79.52;97627.66;5007605;28;20774;-75
2023/01/16 09:16:49;;;;;;;0.80;0.63;;;;;;;6.94;80.09;97622.53;5009733;28;20187;-76
2023/01/16 09:19:15;;;;;;;0.60;0.57;;;;;;;6.96;80.80;97618.13;5007525;28;20208;-74
2023/01/16 09:21:40;;;;;;;1.10;0.60;;;;;;;6.97;81.35;97630.09;5004567;28;20652;-75
2023/01/16 09:24:07;;;;;;;0.60;0.50;;;;;;;6.95;81.57;97614.75;4999100;28;20266;-75
2023/01/16 09:26:32;;;;;;;0.70;0.50;;;;;;;6.91;82.10;97638.06;5007769;28;20195;-75
2023/01/16 09:28:57;;;;;;;1.47;0.70;;;;;;;6.84;82.42;97633.13;4998725;28;20195;-77
2023/01/16 09:31:23;;;;;;;0.90;0.60;;;;;;;6.81;82.54;97619.56;4997202;28;20200;-77
2023/01/16 09:33:49;;;;;;;1.17;0.57;;;;;;;6.74;82.45;97618.94;5009914;28;20214;-77
2023/01/16 09:36:14;;;;;;;0.60;0.40;;;;;;;6.71;82.85;97621.63;5009546;28;20578;-76
2023/01/16 09:38:40;;;;;;;1.10;0.73;;;;;;;6.69;83.12;97615.69;5008136;28;20216;-77
2023/01/16 09:41:06;;;;;;;0.83;0.60;;;;;;;6.66;83.33;97615.78;5007703;28;20248;-76
2023/01/16 09:43:42;;;;;;;0.83;0.60;;;;;;;6.64;83.59;97607.31;5007804;28;20239;-76
2023/01/16 09:46:22;;;;;;;1.10;0.70;;;;;;;6.65;83.70;97619.28;5005633;28;20186;-76
2023/01/16 09:49:03;;;;;;;0.80;0.50;;;;;;;6.64;83.95;97618.44;5009130;28;20179;-74
2023/01/16 09:58:34;;;;;;;1.03;0.60;;;;;;;6.67;83.30;97614.91;5007811;28;20211;-75
2023/01/16 10:00:16;;;;;;;1.17;0.53;;;;;;;6.69;83.58;97607.97;5009086;28;20279;-77
2023/01/16 10:02:43;;;;;;;2.60;2.40;;;;;;;6.70;83.85;97597.66;5033172;28;20172;-76
2023/01/16 10:05:10;;;;;;;6.80;6.20;;;;;;;6.73;83.79;97604.41;5029512;28;20278;-74
2023/01/16 10:07:38;;;;;;;7.13;6.53;;;;;;;6.78;83.91;97581.97;5010034;28;20576;-74
2023/01/16 10:10:18;;;;;;;1.90;1.80;;;;;;;6.84;82.88;97599.69;5008999;28;20229;-74
2023/01/16 10:13:04;;;;;;;1.60;1.50;;;;;;;6.85;83.48;97588.53;5004686;28;20562;-75
2023/01/16 10:15:30;;;;;;;1.47;1.00;;;;;;;6.93;83.84;97575.38;5000729;28;20173;-75
2023/01/16 10:18:20;;;;;;;1.37;1.20;;;;;;;6.97;84.22;97571.81;5009135;28;20687;-75
2023/01/16 10:21:14;;;;;;;1.13;0.70;;;;;;;7.10;84.47;97571.34;5008187;28;20239;-74
2023/01/16 10:23:52;;;;;;;2.00;1.20;;;;;;;7.11;84.36;97575.59;5005374;28;20761;-77
2023/01/16 10:26:29;;;;;;;1.60;1.50;;;;;;;7.16;84.71;97553.94;5010361;28;20200;-75
2023/01/16 10:29:18;;;;;;;3.93;3.63;;;;;;;7.19;85.00;97559.84;5013065;28;20222;-75
2023/01/16 10:32:11;;;;;;;4.30;3.90;;;;;;;7.21;85.23;97556.31;5010841;28;20204;-75
2023/01/16 10:34:47;;;;;;;4.87;4.47;;;;;;;7.23;85.47;97564.00;5014855;28;20763;-74
2023/01/16 10:37:13;;;;;;;3.63;3.33;;;;;;;7.23;85.64;97553.69;5012797;28;20273;-76
2023/01/16 10:39:38;;;;;;;6.83;6.23;;;;;;;7.20;86.21;97546.09;5013523;28;20240;-75
2023/01/16 10:50:36;;;;;;;8.70;7.90;;;;;;;7.16;86.68;97535.09;5005546;28;20222;-76
2023/01/16 10:53:02;;;;;;;5.60;5.10;;;;;;;7.14;86.91;97530.00;5004178;28;20196;-74
2023/01/16 10:55:28;;;;;;;3.23;2.93;;;;;;;7.16;86.88;97519.66;5006498;28;20204;-76
2023/01/16 10:58:00;;;;;;;2.80;2.50;;;;;;;7.19;87.38;97513.56;5012828;28;20196;-75
2023/01/16 11:00:32;;;;;;;2.90;2.70;;;;;;;7.21;86.55;97509.19;5014189;28;20787;-75
2023/01/16 11:03:00;;;;;;;1.50;1.40;;;;;;;7.29;86.61;97487.41;5015029;28;20192;-73
2023/01/16 11:05:30;;;;;;;0.87;0.87;;;;;;;7.38;86.81;97493.91;5001499;28;20199;-75
2023/01/16 11:08:05;;;;;;;2.23;0.97;;;;;;;7.45;86.61;97486.78;5015779;28;20194;-76
2023/01/16 11:10:30;;;;;;;0.70;0.70;;;;;;;7.55;85.42;97476.94;5018832;28;20211;-76
2023/01/16 11:18:30;;;;;;;0.60;0.50;;;;;;;7.97;84.17;97462.28;5001642;28;20275;-75
2023/01/16 11:21:12;;;;;;;0.40;0.33;;;;;;;8.07;83.48;97454.09;5003907;28;20190;-76
2023/01/16 11:23:41;;;;;;;0.40;0.37;;;;;;;8.14;82.95;97440.94;5012054;28;20337;-76
2023/01/16 11:26:07;;;;;;;0.70;0.40;;;;;;;8.19;81.89;97428.66;5006417;28;20192;-76
2023/01/16 11:28:34;;;;;;;0.30;0.30;;;;;;;8.19;82.25;97426.09;4994766;28;20196;-76
2023/01/16 11:31:14;;;;;;;0.30;0.30;;;;;;;8.21;82.36;97424.28;4999785;28;20951;-76
2023/01/16 11:33:44;;;;;;;0.40;0.40;;;;;;;8.22;82.30;97390.75;5004721;28;20353;-77
2023/01/16 11:36:14;;;;;;;0.20;0.20;;;;;;;8.30;81.88;97405.00;5003803;28;20216;-76
2023/01/16 11:38:45;;;;;;;0.20;0.20;;;;;;;8.35;82.51;97395.31;5007545;28;20208;-76
2023/01/16 11:41:10;;;;;;;1.17;0.30;;;;;;;8.38;81.82;97395.19;5003236;28;20180;-76
2023/01/16 11:46:41;;;;;;;0.20;0.20;;;;;;;8.60;81.21;97381.31;5009262;28;20202;-76
2023/01/16 11:49:19;;;;;;;0.20;0.20;;;;;;;8.67;80.63;97373.22;5005735;28;20196;-75
2023/01/16 11:51:48;;;;;;;0.20;0.20;;;;;;;8.71;80.49;97370.47;5005209;28;20725;-75
2023/01/16 11:54:25;;;;;;;0.47;0.40;;;;;;;8.80;81.20;97370.03;5003082;28;20266;-75
2023/01/16 11:57:10;;;;;;;0.50;0.20;;;;;;;8.93;81.43;97355.63;5003418;28;20856;-76
2023/01/16 11:59:38;;;;;;;0.33;0.20;;;;;;;8.96;80.95;97344.34;5002730;28;20248;-77
2023/01/16 12:02:27;;;;;;;0.40;0.40;;;;;;;9.02;80.68;97319.97;5008334;28;20201;-78
2023/01/16 12:07:58;;;;;;;0.40;0.20;;;;;;;9.26;78.93;97303.22;5002697;28;20325;-74
2023/01/16 12:10:35;;;;;;;0.40;0.20;;;;;;;9.27;79.05;97289.41;5003571;28;20225;-76
2023/01/16 12:16:09;;;;;;;0.10;0.10;;;;;;;9.38;77.71;97277.69;5023191;28;20220;-77
2023/01/16 12:18:55;;;;;;;0.33;0.27;;;;;;;9.48;77.08;97273.72;5010177;28;20196;-77
2023/01/16 12:21:40;;;;;;;0.30;0.30;;;;;;;9.45;77.26;97269.53;5004339;28;20235;-77
2023/01/16 12:24:28;;;;;;;0.97;0.30;;;;;;;9.39;76.41;97274.19;5009817;28;20744;-75
2023/01/16 12:27:08;;;;;;;0.50;0.30;;;;;;;9.44;77.02;97251.56;5009189;28;20242;-75
2023/01/16 12:30:04;;;;;;;0.50;0.30;;;;;;;9.43;77.09;97255.91;5012814;28;20234;-73
2023/01/16 12:32:40;;;;;;;0.27;0.20;;;;;;;9.34;77.34;97246.06;5000715;28;20208;-76
2023/01/16 12:35:05;;;;;;;1.50;0.30;;;;;;;9.32;77.33;97242.72;5005206;28;20700;-75
2023/01/16 12:38:14;;;;;;;0.13;0.13;;;;;;;9.25;76.54;97226.72;4996613;28;20223;-76
2023/01/16 12:40:45;;;;;;;0.83;0.30;;;;;;;9.13;76.68;97220.50;4983018;28;20182;-76
2023/01/16 12:43:29;;;;;;;0.20;0.20;;;;;;;9.13;76.66;97217.06;5002341;28;20200;-77